sensor_id;sensor_type;location;lat;lon;timestamp;P1;durP1;ratioP1;P2;durP2;ratioP2
7845;SDS011;3968;51.424;6.788;2024-02-14T00:00:44;5.57;;;3.10;;
7845;SDS011;3968;51.424;6.788;2024-02-14T00:03:10;4.33;;;2.90;;
7845;SDS011;3968;51.424;6.788;2024-02-14T00:05:35;2.97;;;2.67;;
7845;SDS011;3968;51.424;6.788;2024-02-14T00:08:01;4.90;;;3.07;;
7845;SDS011;3968;51.424;6.788;2024-02-14T00:10:28;7.37;;;3.10;;
7845;SDS011;3968;51.424;6.788;2024-02-14T00:12:54;4.03;;;3.00;;
7845;SDS011;3968;51.424;6.788;2024-02-14T00:15:19;5.03;;;3.20;;
7845;SDS011;3968;51.424;6.788;2024-02-14T00:17:45;4.80;;;3.20;;
7845;SDS011;3968;51.424;6.788;2024-02-14T00:20:11;6.67;;;3.03;;
7845;SDS011;3968;51.424;6.788;2024-02-14T00:22:37;5.87;;;2.63;;
7845;SDS011;3968;51.424;6.788;2024-02-14T00:25:04;5.93;;;2.80;;
7845;SDS011;3968;51.424;6.788;2024-02-14T00:27:30;4.53;;;3.20;;
7845;SDS011;3968;51.424;6.788;2024-02-14T00:29:55;4.67;;;3.00;;
7845;SDS011;3968;51.424;6.788;2024-02-14T00:32:21;3.17;;;2.50;;
7845;SDS011;3968;51.424;6.788;2024-02-14T00:34:47;4.47;;;2.80;;
7845;SDS011;3968;51.424;6.788;2024-02-14T00:37:12;6.00;;;3.47;;
7845;SDS011;3968;51.424;6.788;2024-02-14T00:39:38;4.27;;;2.97;;
7845;SDS011;3968;51.424;6.788;2024-02-14T00:42:04;5.33;;;2.87;;
7845;SDS011;3968;51.424;6.788;2024-02-14T00:44:30;8.63;;;3.07;;
7845;SDS011;3968;51.424;6.788;2024-02-14T00:46:56;5.53;;;2.83;;
7845;SDS011;3968;51.424;6.788;2024-02-14T00:49:27;3.83;;;3.00;;
7845;SDS011;3968;51.424;6.788;2024-02-14T00:51:52;6.07;;;2.87;;
7845;SDS011;3968;51.424;6.788;2024-02-14T00:54:18;5.17;;;2.60;;
7845;SDS011;3968;51.424;6.788;2024-02-14T00:56:44;3.87;;;2.80;;
7845;SDS011;3968;51.424;6.788;2024-02-14T00:59:10;4.80;;;2.50;;
7845;SDS011;3968;51.424;6.788;2024-02-14T01:01:35;4.10;;;2.97;;
7845;SDS011;3968;51.424;6.788;2024-02-14T01:04:01;5.23;;;2.70;;
7845;SDS011;3968;51.424;6.788;2024-02-14T01:06:27;5.37;;;2.93;;
7845;SDS011;3968;51.424;6.788;2024-02-14T01:08:55;4.37;;;2.57;;
7845;SDS011;3968;51.424;6.788;2024-02-14T01:11:20;6.67;;;3.47;;
7845;SDS011;3968;51.424;6.788;2024-02-14T01:13:46;4.67;;;2.90;;
7845;SDS011;3968;51.424;6.788;2024-02-14T01:16:12;4.00;;;2.80;;
7845;SDS011;3968;51.424;6.788;2024-02-14T01:18:37;4.33;;;3.10;;
7845;SDS011;3968;51.424;6.788;2024-02-14T01:21:03;8.53;;;3.37;;
7845;SDS011;3968;51.424;6.788;2024-02-14T01:23:29;4.37;;;2.60;;
7845;SDS011;3968;51.424;6.788;2024-02-14T01:25:54;2.57;;;2.37;;
7845;SDS011;3968;51.424;6.788;2024-02-14T01:28:20;4.50;;;2.50;;
7845;SDS011;3968;51.424;6.788;2024-02-14T01:30:46;4.50;;;2.60;;
7845;SDS011;3968;51.424;6.788;2024-02-14T01:33:11;3.47;;;2.70;;
7845;SDS011;3968;51.424;6.788;2024-02-14T01:35:37;5.80;;;2.60;;
7845;SDS011;3968;51.424;6.788;2024-02-14T01:38:02;8.57;;;2.70;;
7845;SDS011;3968;51.424;6.788;2024-02-14T01:40:29;4.77;;;2.47;;
7845;SDS011;3968;51.424;6.788;2024-02-14T01:42:55;3.17;;;2.43;;
7845;SDS011;3968;51.424;6.788;2024-02-14T01:45:21;2.87;;;2.27;;
7845;SDS011;3968;51.424;6.788;2024-02-14T01:47:47;3.57;;;2.03;;
7845;SDS011;3968;51.424;6.788;2024-02-14T01:50:15;4.10;;;2.50;;
7845;SDS011;3968;51.424;6.788;2024-02-14T01:52:41;6.20;;;2.43;;
7845;SDS011;3968;51.424;6.788;2024-02-14T01:55:08;5.47;;;2.37;;
7845;SDS011;3968;51.424;6.788;2024-02-14T01:57:34;5.33;;;1.87;;
7845;SDS011;3968;51.424;6.788;2024-02-14T02:00:01;2.63;;;1.90;;
7845;SDS011;3968;51.424;6.788;2024-02-14T02:02:33;3.67;;;2.33;;
7845;SDS011;3968;51.424;6.788;2024-02-14T02:05:02;3.23;;;2.30;;
7845;SDS011;3968;51.424;6.788;2024-02-14T02:07:28;3.43;;;2.03;;
7845;SDS011;3968;51.424;6.788;2024-02-14T02:09:55;4.57;;;2.30;;
7845;SDS011;3968;51.424;6.788;2024-02-14T02:12:20;2.97;;;1.77;;
7845;SDS011;3968;51.424;6.788;2024-02-14T02:14:46;5.27;;;2.00;;
7845;SDS011;3968;51.424;6.788;2024-02-14T02:17:12;2.30;;;1.90;;
7845;SDS011;3968;51.424;6.788;2024-02-14T02:19:37;2.13;;;1.83;;
7845;SDS011;3968;51.424;6.788;2024-02-14T02:22:03;3.90;;;1.93;;
7845;SDS011;3968;51.424;6.788;2024-02-14T02:24:29;2.80;;;2.00;;
7845;SDS011;3968;51.424;6.788;2024-02-14T02:26:55;2.13;;;1.80;;
7845;SDS011;3968;51.424;6.788;2024-02-14T02:29:21;1.73;;;1.63;;
7845;SDS011;3968;51.424;6.788;2024-02-14T02:31:47;2.07;;;1.80;;
7845;SDS011;3968;51.424;6.788;2024-02-14T02:34:13;1.90;;;1.70;;
7845;SDS011;3968;51.424;6.788;2024-02-14T02:36:39;2.03;;;1.83;;
7845;SDS011;3968;51.424;6.788;2024-02-14T02:39:08;2.53;;;1.90;;
7845;SDS011;3968;51.424;6.788;2024-02-14T02:41:34;2.37;;;1.80;;
7845;SDS011;3968;51.424;6.788;2024-02-14T02:44:00;3.43;;;2.00;;
7845;SDS011;3968;51.424;6.788;2024-02-14T02:46:26;3.93;;;2.07;;
7845;SDS011;3968;51.424;6.788;2024-02-14T02:48:52;5.67;;;2.23;;
7845;SDS011;3968;51.424;6.788;2024-02-14T02:51:22;4.77;;;2.20;;
7845;SDS011;3968;51.424;6.788;2024-02-14T02:53:47;3.07;;;1.93;;
7845;SDS011;3968;51.424;6.788;2024-02-14T02:56:13;1.80;;;1.70;;
7845;SDS011;3968;51.424;6.788;2024-02-14T02:58:39;2.57;;;1.77;;
7845;SDS011;3968;51.424;6.788;2024-02-14T03:01:08;4.30;;;1.70;;
7845;SDS011;3968;51.424;6.788;2024-02-14T03:03:34;3.43;;;1.93;;
7845;SDS011;3968;51.424;6.788;2024-02-14T03:06:01;2.37;;;1.90;;
7845;SDS011;3968;51.424;6.788;2024-02-14T03:08:28;3.67;;;2.40;;
7845;SDS011;3968;51.424;6.788;2024-02-14T03:10:55;2.70;;;1.97;;
7845;SDS011;3968;51.424;6.788;2024-02-14T03:13:24;4.13;;;2.27;;
7845;SDS011;3968;51.424;6.788;2024-02-14T03:15:51;3.20;;;2.23;;
7845;SDS011;3968;51.424;6.788;2024-02-14T03:18:17;2.97;;;2.40;;
7845;SDS011;3968;51.424;6.788;2024-02-14T03:20:42;5.33;;;3.07;;
7845;SDS011;3968;51.424;6.788;2024-02-14T03:23:08;3.00;;;1.73;;
7845;SDS011;3968;51.424;6.788;2024-02-14T03:25:34;2.77;;;2.10;;
7845;SDS011;3968;51.424;6.788;2024-02-14T03:28:01;3.10;;;2.57;;
7845;SDS011;3968;51.424;6.788;2024-02-14T03:30:33;7.67;;;2.43;;
7845;SDS011;3968;51.424;6.788;2024-02-14T03:32:59;3.10;;;2.60;;
7845;SDS011;3968;51.424;6.788;2024-02-14T03:35:25;6.03;;;3.20;;
7845;SDS011;3968;51.424;6.788;2024-02-14T03:37:52;3.43;;;2.37;;
7845;SDS011;3968;51.424;6.788;2024-02-14T03:40:18;3.80;;;2.90;;
7845;SDS011;3968;51.424;6.788;2024-02-14T03:42:47;5.10;;;3.50;;
7845;SDS011;3968;51.424;6.788;2024-02-14T03:45:13;3.17;;;2.47;;
7845;SDS011;3968;51.424;6.788;2024-02-14T03:47:39;3.67;;;2.60;;
7845;SDS011;3968;51.424;6.788;2024-02-14T03:50:05;4.10;;;2.50;;
7845;SDS011;3968;51.424;6.788;2024-02-14T03:52:32;4.80;;;2.70;;
7845;SDS011;3968;51.424;6.788;2024-02-14T03:54:58;3.97;;;3.10;;
7845;SDS011;3968;51.424;6.788;2024-02-14T03:57:25;5.23;;;3.50;;
7845;SDS011;3968;51.424;6.788;2024-02-14T03:59:53;6.70;;;4.17;;
7845;SDS011;3968;51.424;6.788;2024-02-14T04:02:19;4.53;;;3.03;;
7845;SDS011;3968;51.424;6.788;2024-02-14T04:04:45;4.07;;;2.70;;
7845;SDS011;3968;51.424;6.788;2024-02-14T04:07:11;8.20;;;3.00;;
7845;SDS011;3968;51.424;6.788;2024-02-14T04:09:37;4.10;;;2.80;;
7845;SDS011;3968;51.424;6.788;2024-02-14T04:12:03;3.07;;;2.60;;
7845;SDS011;3968;51.424;6.788;2024-02-14T04:14:30;3.67;;;3.00;;
7845;SDS011;3968;51.424;6.788;2024-02-14T04:16:56;4.30;;;3.30;;
7845;SDS011;3968;51.424;6.788;2024-02-14T04:19:22;3.90;;;3.30;;
7845;SDS011;3968;51.424;6.788;2024-02-14T04:21:47;4.43;;;3.73;;
7845;SDS011;3968;51.424;6.788;2024-02-14T04:24:13;5.20;;;3.47;;
7845;SDS011;3968;51.424;6.788;2024-02-14T04:26:39;6.60;;;4.63;;
7845;SDS011;3968;51.424;6.788;2024-02-14T04:29:05;3.60;;;3.30;;
7845;SDS011;3968;51.424;6.788;2024-02-14T04:31:33;5.47;;;3.57;;
7845;SDS011;3968;51.424;6.788;2024-02-14T04:33:58;6.93;;;5.30;;
7845;SDS011;3968;51.424;6.788;2024-02-14T04:36:24;5.13;;;4.00;;
7845;SDS011;3968;51.424;6.788;2024-02-14T04:38:49;7.27;;;3.73;;
7845;SDS011;3968;51.424;6.788;2024-02-14T04:41:15;6.13;;;4.00;;
7845;SDS011;3968;51.424;6.788;2024-02-14T04:43:41;6.10;;;4.90;;
7845;SDS011;3968;51.424;6.788;2024-02-14T04:46:07;5.70;;;4.03;;
7845;SDS011;3968;51.424;6.788;2024-02-14T04:48:33;5.77;;;4.10;;
7845;SDS011;3968;51.424;6.788;2024-02-14T04:51:00;6.70;;;4.60;;
7845;SDS011;3968;51.424;6.788;2024-02-14T04:53:26;6.70;;;4.47;;
7845;SDS011;3968;51.424;6.788;2024-02-14T04:55:52;5.87;;;4.50;;
7845;SDS011;3968;51.424;6.788;2024-02-14T04:58:18;10.47;;;4.73;;
7845;SDS011;3968;51.424;6.788;2024-02-14T05:00:45;7.23;;;4.80;;
7845;SDS011;3968;51.424;6.788;2024-02-14T05:03:10;7.27;;;5.20;;
7845;SDS011;3968;51.424;6.788;2024-02-14T05:05:36;8.80;;;5.37;;
7845;SDS011;3968;51.424;6.788;2024-02-14T05:08:02;9.97;;;6.00;;
7845;SDS011;3968;51.424;6.788;2024-02-14T05:10:28;6.67;;;4.63;;
7845;SDS011;3968;51.424;6.788;2024-02-14T05:12:54;5.33;;;4.57;;
7845;SDS011;3968;51.424;6.788;2024-02-14T05:15:20;6.07;;;4.20;;
7845;SDS011;3968;51.424;6.788;2024-02-14T05:17:46;4.93;;;3.83;;
7845;SDS011;3968;51.424;6.788;2024-02-14T05:20:11;6.07;;;4.30;;
7845;SDS011;3968;51.424;6.788;2024-02-14T05:22:37;5.73;;;4.43;;
7845;SDS011;3968;51.424;6.788;2024-02-14T05:25:04;8.47;;;5.30;;
7845;SDS011;3968;51.424;6.788;2024-02-14T05:27:30;7.77;;;5.00;;
7845;SDS011;3968;51.424;6.788;2024-02-14T05:29:56;8.17;;;5.83;;
7845;SDS011;3968;51.424;6.788;2024-02-14T05:32:22;7.17;;;5.63;;
7845;SDS011;3968;51.424;6.788;2024-02-14T05:34:48;5.33;;;4.80;;
7845;SDS011;3968;51.424;6.788;2024-02-14T05:37:15;5.40;;;4.77;;
7845;SDS011;3968;51.424;6.788;2024-02-14T05:39:41;7.57;;;4.97;;
7845;SDS011;3968;51.424;6.788;2024-02-14T05:42:07;8.43;;;5.30;;
7845;SDS011;3968;51.424;6.788;2024-02-14T05:44:33;9.10;;;5.13;;
7845;SDS011;3968;51.424;6.788;2024-02-14T05:46:59;10.13;;;5.27;;
7845;SDS011;3968;51.424;6.788;2024-02-14T05:49:25;7.77;;;5.20;;
7845;SDS011;3968;51.424;6.788;2024-02-14T05:51:51;8.63;;;5.43;;
7845;SDS011;3968;51.424;6.788;2024-02-14T05:54:18;7.47;;;5.50;;
7845;SDS011;3968;51.424;6.788;2024-02-14T05:56:44;7.30;;;5.17;;
7845;SDS011;3968;51.424;6.788;2024-02-14T05:59:10;8.57;;;6.30;;
7845;SDS011;3968;51.424;6.788;2024-02-14T06:01:36;7.43;;;5.37;;
7845;SDS011;3968;51.424;6.788;2024-02-14T06:04:02;9.20;;;6.20;;
7845;SDS011;3968;51.424;6.788;2024-02-14T06:06:27;9.57;;;6.40;;
7845;SDS011;3968;51.424;6.788;2024-02-14T06:08:53;9.97;;;7.30;;
7845;SDS011;3968;51.424;6.788;2024-02-14T06:11:20;9.20;;;7.23;;
7845;SDS011;3968;51.424;6.788;2024-02-14T06:13:47;12.80;;;6.77;;
7845;SDS011;3968;51.424;6.788;2024-02-14T06:16:13;9.63;;;6.77;;
7845;SDS011;3968;51.424;6.788;2024-02-14T06:18:38;11.87;;;7.30;;
7845;SDS011;3968;51.424;6.788;2024-02-14T06:21:05;8.60;;;6.60;;
7845;SDS011;3968;51.424;6.788;2024-02-14T06:23:31;10.23;;;6.30;;
7845;SDS011;3968;51.424;6.788;2024-02-14T06:25:57;6.77;;;5.57;;
7845;SDS011;3968;51.424;6.788;2024-02-14T06:28:23;8.77;;;5.23;;
7845;SDS011;3968;51.424;6.788;2024-02-14T06:30:49;6.63;;;5.50;;
7845;SDS011;3968;51.424;6.788;2024-02-14T06:33:15;6.83;;;5.23;;
7845;SDS011;3968;51.424;6.788;2024-02-14T06:35:40;7.23;;;4.73;;
7845;SDS011;3968;51.424;6.788;2024-02-14T06:38:06;7.50;;;4.83;;
7845;SDS011;3968;51.424;6.788;2024-02-14T06:40:32;9.63;;;5.63;;
7845;SDS011;3968;51.424;6.788;2024-02-14T06:42:58;7.38;;;4.90;;
7845;SDS011;3968;51.424;6.788;2024-02-14T06:45:25;7.93;;;5.40;;
7845;SDS011;3968;51.424;6.788;2024-02-14T06:47:52;9.83;;;6.43;;
7845;SDS011;3968;51.424;6.788;2024-02-14T06:50:18;9.23;;;6.80;;
7845;SDS011;3968;51.424;6.788;2024-02-14T06:52:43;14.03;;;7.43;;
7845;SDS011;3968;51.424;6.788;2024-02-14T06:55:09;11.53;;;6.57;;
7845;SDS011;3968;51.424;6.788;2024-02-14T06:57:34;12.53;;;7.00;;
7845;SDS011;3968;51.424;6.788;2024-02-14T07:00:00;10.40;;;7.10;;
7845;SDS011;3968;51.424;6.788;2024-02-14T07:02:26;9.37;;;7.07;;
7845;SDS011;3968;51.424;6.788;2024-02-14T07:04:53;7.87;;;6.63;;
7845;SDS011;3968;51.424;6.788;2024-02-14T07:07:19;9.77;;;7.63;;
7845;SDS011;3968;51.424;6.788;2024-02-14T07:09:45;9.00;;;7.63;;
7845;SDS011;3968;51.424;6.788;2024-02-14T07:12:10;12.47;;;7.30;;
7845;SDS011;3968;51.424;6.788;2024-02-14T07:14:36;10.93;;;7.50;;
7845;SDS011;3968;51.424;6.788;2024-02-14T07:17:02;10.73;;;7.43;;
7845;SDS011;3968;51.424;6.788;2024-02-14T07:19:28;9.27;;;6.60;;
7845;SDS011;3968;51.424;6.788;2024-02-14T07:21:53;10.07;;;7.50;;
7845;SDS011;3968;51.424;6.788;2024-02-14T07:24:19;7.33;;;6.63;;
7845;SDS011;3968;51.424;6.788;2024-02-14T07:26:44;6.10;;;5.30;;
7845;SDS011;3968;51.424;6.788;2024-02-14T07:29:11;7.90;;;5.17;;
7845;SDS011;3968;51.424;6.788;2024-02-14T07:31:36;7.73;;;4.80;;
7845;SDS011;3968;51.424;6.788;2024-02-14T07:34:02;6.23;;;4.90;;
7845;SDS011;3968;51.424;6.788;2024-02-14T07:36:28;6.70;;;4.93;;
7845;SDS011;3968;51.424;6.788;2024-02-14T07:38:54;7.07;;;5.43;;
7845;SDS011;3968;51.424;6.788;2024-02-14T07:41:20;5.00;;;4.43;;
7845;SDS011;3968;51.424;6.788;2024-02-14T07:43:46;6.83;;;4.30;;
7845;SDS011;3968;51.424;6.788;2024-02-14T07:46:15;7.20;;;4.53;;
7845;SDS011;3968;51.424;6.788;2024-02-14T07:48:45;6.90;;;4.60;;
7845;SDS011;3968;51.424;6.788;2024-02-14T07:51:11;6.73;;;4.57;;
7845;SDS011;3968;51.424;6.788;2024-02-14T07:53:37;4.73;;;4.30;;
7845;SDS011;3968;51.424;6.788;2024-02-14T07:56:03;6.83;;;4.33;;
7845;SDS011;3968;51.424;6.788;2024-02-14T07:58:29;8.37;;;4.20;;
7845;SDS011;3968;51.424;6.788;2024-02-14T08:00:54;6.37;;;4.20;;
7845;SDS011;3968;51.424;6.788;2024-02-14T08:03:20;5.27;;;4.27;;
7845;SDS011;3968;51.424;6.788;2024-02-14T08:05:46;8.63;;;5.00;;
7845;SDS011;3968;51.424;6.788;2024-02-14T08:08:11;6.23;;;4.80;;
7845;SDS011;3968;51.424;6.788;2024-02-14T08:10:37;8.67;;;4.97;;
7845;SDS011;3968;51.424;6.788;2024-02-14T08:13:03;9.20;;;4.40;;
7845;SDS011;3968;51.424;6.788;2024-02-14T08:15:29;11.13;;;4.37;;
7845;SDS011;3968;51.424;6.788;2024-02-14T08:17:55;7.60;;;4.33;;
7845;SDS011;3968;51.424;6.788;2024-02-14T08:20:21;3.90;;;3.13;;
7845;SDS011;3968;51.424;6.788;2024-02-14T08:22:48;8.10;;;4.30;;
7845;SDS011;3968;51.424;6.788;2024-02-14T08:25:13;6.73;;;3.80;;
7845;SDS011;3968;51.424;6.788;2024-02-14T08:27:39;9.03;;;3.83;;
7845;SDS011;3968;51.424;6.788;2024-02-14T08:30:05;11.60;;;4.70;;
7845;SDS011;3968;51.424;6.788;2024-02-14T08:32:31;9.00;;;3.37;;
7845;SDS011;3968;51.424;6.788;2024-02-14T08:34:58;4.90;;;3.93;;
7845;SDS011;3968;51.424;6.788;2024-02-14T08:37:23;8.67;;;4.27;;
7845;SDS011;3968;51.424;6.788;2024-02-14T08:39:50;10.20;;;5.07;;
7845;SDS011;3968;51.424;6.788;2024-02-14T08:42:15;5.63;;;3.97;;
7845;SDS011;3968;51.424;6.788;2024-02-14T08:44:41;5.20;;;3.40;;
7845;SDS011;3968;51.424;6.788;2024-02-14T08:47:07;6.13;;;3.45;;
7845;SDS011;3968;51.424;6.788;2024-02-14T08:49:32;7.87;;;3.90;;
7845;SDS011;3968;51.424;6.788;2024-02-14T08:51:58;8.47;;;3.93;;
7845;SDS011;3968;51.424;6.788;2024-02-14T08:54:24;13.30;;;4.50;;
7845;SDS011;3968;51.424;6.788;2024-02-14T08:56:50;8.13;;;3.70;;
7845;SDS011;3968;51.424;6.788;2024-02-14T08:59:18;88.97;;;8.87;;
7845;SDS011;3968;51.424;6.788;2024-02-14T09:01:46;29.00;;;4.90;;
7845;SDS011;3968;51.424;6.788;2024-02-14T09:04:13;8.70;;;3.10;;
7845;SDS011;3968;51.424;6.788;2024-02-14T09:06:38;6.43;;;3.57;;
7845;SDS011;3968;51.424;6.788;2024-02-14T09:09:05;5.87;;;3.07;;
7845;SDS011;3968;51.424;6.788;2024-02-14T09:11:32;7.03;;;3.43;;
7845;SDS011;3968;51.424;6.788;2024-02-14T09:13:57;5.37;;;3.30;;
7845;SDS011;3968;51.424;6.788;2024-02-14T09:16:29;8.43;;;4.07;;
7845;SDS011;3968;51.424;6.788;2024-02-14T09:18:56;6.33;;;3.70;;
7845;SDS011;3968;51.424;6.788;2024-02-14T09:21:21;6.40;;;4.30;;
7845;SDS011;3968;51.424;6.788;2024-02-14T09:23:47;6.10;;;4.07;;
7845;SDS011;3968;51.424;6.788;2024-02-14T09:26:13;6.07;;;3.57;;
7845;SDS011;3968;51.424;6.788;2024-02-14T09:28:42;6.17;;;3.60;;
7845;SDS011;3968;51.424;6.788;2024-02-14T09:31:08;7.10;;;3.27;;
7845;SDS011;3968;51.424;6.788;2024-02-14T09:33:36;7.60;;;3.87;;
7845;SDS011;3968;51.424;6.788;2024-02-14T09:36:02;4.23;;;3.10;;
7845;SDS011;3968;51.424;6.788;2024-02-14T09:38:29;5.87;;;3.50;;
7845;SDS011;3968;51.424;6.788;2024-02-14T09:40:58;7.10;;;3.63;;
7845;SDS011;3968;51.424;6.788;2024-02-14T09:43:37;8.13;;;3.40;;
7845;SDS011;3968;51.424;6.788;2024-02-14T09:46:06;7.27;;;3.47;;
7845;SDS011;3968;51.424;6.788;2024-02-14T09:48:32;9.70;;;3.83;;
7845;SDS011;3968;51.424;6.788;2024-02-14T09:50:58;7.30;;;3.73;;
7845;SDS011;3968;51.424;6.788;2024-02-14T09:53:25;4.50;;;3.10;;
7845;SDS011;3968;51.424;6.788;2024-02-14T09:55:53;6.10;;;3.40;;
7845;SDS011;3968;51.424;6.788;2024-02-14T09:58:20;8.13;;;3.60;;
7845;SDS011;3968;51.424;6.788;2024-02-14T10:00:46;5.60;;;3.43;;
7845;SDS011;3968;51.424;6.788;2024-02-14T10:03:12;5.00;;;3.70;;
7845;SDS011;3968;51.424;6.788;2024-02-14T10:05:37;8.10;;;3.90;;
7845;SDS011;3968;51.424;6.788;2024-02-14T10:08:03;4.97;;;3.43;;
7845;SDS011;3968;51.424;6.788;2024-02-14T10:10:31;8.18;;;4.82;;
7845;SDS011;3968;51.424;6.788;2024-02-14T10:13:00;7.53;;;4.63;;
7845;SDS011;3968;51.424;6.788;2024-02-14T10:15:25;7.60;;;4.70;;
7845;SDS011;3968;51.424;6.788;2024-02-14T10:17:51;5.47;;;3.97;;
7845;SDS011;3968;51.424;6.788;2024-02-14T10:20:17;34.63;;;23.73;;
7845;SDS011;3968;51.424;6.788;2024-02-14T10:22:43;134.03;;;88.80;;
7845;SDS011;3968;51.424;6.788;2024-02-14T10:25:09;101.03;;;67.90;;
7845;SDS011;3968;51.424;6.788;2024-02-14T10:27:38;65.33;;;42.90;;
7845;SDS011;3968;51.424;6.788;2024-02-14T10:30:05;17.27;;;7.37;;
7845;SDS011;3968;51.424;6.788;2024-02-14T10:32:34;7.50;;;4.60;;
7845;SDS011;3968;51.424;6.788;2024-02-14T10:35:03;10.93;;;4.57;;
7845;SDS011;3968;51.424;6.788;2024-02-14T10:37:29;6.33;;;4.23;;
7845;SDS011;3968;51.424;6.788;2024-02-14T10:39:56;9.50;;;4.53;;
7845;SDS011;3968;51.424;6.788;2024-02-14T10:42:24;8.97;;;4.87;;
7845;SDS011;3968;51.424;6.788;2024-02-14T10:44:50;7.97;;;4.20;;
7845;SDS011;3968;51.424;6.788;2024-02-14T10:47:19;7.87;;;4.80;;
7845;SDS011;3968;51.424;6.788;2024-02-14T10:49:48;7.03;;;4.00;;
7845;SDS011;3968;51.424;6.788;2024-02-14T10:52:16;8.57;;;4.10;;
7845;SDS011;3968;51.424;6.788;2024-02-14T10:54:42;4.97;;;3.50;;
7845;SDS011;3968;51.424;6.788;2024-02-14T10:57:11;10.23;;;4.40;;
7845;SDS011;3968;51.424;6.788;2024-02-14T10:59:38;7.35;;;4.38;;
7845;SDS011;3968;51.424;6.788;2024-02-14T11:02:08;10.75;;;3.92;;
7845;SDS011;3968;51.424;6.788;2024-02-14T11:04:34;8.23;;;3.70;;
7845;SDS011;3968;51.424;6.788;2024-02-14T11:07:00;7.67;;;4.70;;
7845;SDS011;3968;51.424;6.788;2024-02-14T11:09:36;8.13;;;4.70;;
7845;SDS011;3968;51.424;6.788;2024-02-14T11:12:03;9.77;;;4.30;;
7845;SDS011;3968;51.424;6.788;2024-02-14T11:14:33;7.23;;;4.53;;
7845;SDS011;3968;51.424;6.788;2024-02-14T11:17:00;8.10;;;4.23;;
7845;SDS011;3968;51.424;6.788;2024-02-14T11:19:30;7.77;;;4.47;;
7845;SDS011;3968;51.424;6.788;2024-02-14T11:22:09;14.97;;;8.93;;
7845;SDS011;3968;51.424;6.788;2024-02-14T11:24:45;8.47;;;4.87;;
7845;SDS011;3968;51.424;6.788;2024-02-14T11:27:11;7.50;;;4.70;;
7845;SDS011;3968;51.424;6.788;2024-02-14T11:29:40;10.80;;;7.00;;
7845;SDS011;3968;51.424;6.788;2024-02-14T11:32:15;8.35;;;4.65;;
7845;SDS011;3968;51.424;6.788;2024-02-14T11:34:43;8.57;;;5.03;;
7845;SDS011;3968;51.424;6.788;2024-02-14T11:37:09;6.57;;;3.70;;
7845;SDS011;3968;51.424;6.788;2024-02-14T11:39:34;111.40;;;70.13;;
7845;SDS011;3968;51.424;6.788;2024-02-14T11:42:00;56.87;;;36.60;;
7845;SDS011;3968;51.424;6.788;2024-02-14T11:44:26;31.53;;;20.13;;
7845;SDS011;3968;51.424;6.788;2024-02-14T11:46:52;12.50;;;8.40;;
7845;SDS011;3968;51.424;6.788;2024-02-14T11:49:19;4.90;;;2.63;;
7845;SDS011;3968;51.424;6.788;2024-02-14T11:51:45;5.43;;;2.83;;
7845;SDS011;3968;51.424;6.788;2024-02-14T11:54:11;4.68;;;2.85;;
7845;SDS011;3968;51.424;6.788;2024-02-14T11:56:37;3.67;;;2.60;;
7845;SDS011;3968;51.424;6.788;2024-02-14T11:59:03;5.25;;;2.40;;
7845;SDS011;3968;51.424;6.788;2024-02-14T12:01:33;2.97;;;2.30;;
7845;SDS011;3968;51.424;6.788;2024-02-14T12:04:09;4.55;;;2.35;;
7845;SDS011;3968;51.424;6.788;2024-02-14T12:06:35;10.80;;;6.88;;
7845;SDS011;3968;51.424;6.788;2024-02-14T12:09:04;5.80;;;2.67;;
7845;SDS011;3968;51.424;6.788;2024-02-14T12:11:31;3.33;;;2.60;;
7845;SDS011;3968;51.424;6.788;2024-02-14T12:14:02;4.38;;;2.63;;
7845;SDS011;3968;51.424;6.788;2024-02-14T12:16:29;5.43;;;2.80;;
7845;SDS011;3968;51.424;6.788;2024-02-14T12:19:04;3.77;;;1.93;;
7845;SDS011;3968;51.424;6.788;2024-02-14T12:21:35;3.38;;;2.33;;
7845;SDS011;3968;51.424;6.788;2024-02-14T12:24:03;3.53;;;2.27;;
7845;SDS011;3968;51.424;6.788;2024-02-14T12:26:30;6.30;;;2.40;;
7845;SDS011;3968;51.424;6.788;2024-02-14T12:28:57;3.03;;;1.80;;
7845;SDS011;3968;51.424;6.788;2024-02-14T12:31:23;3.50;;;2.27;;
7845;SDS011;3968;51.424;6.788;2024-02-14T12:33:49;4.97;;;2.90;;
7845;SDS011;3968;51.424;6.788;2024-02-14T12:36:17;6.63;;;4.03;;
7845;SDS011;3968;51.424;6.788;2024-02-14T12:38:43;7.60;;;3.80;;
7845;SDS011;3968;51.424;6.788;2024-02-14T12:41:09;5.33;;;3.33;;
7845;SDS011;3968;51.424;6.788;2024-02-14T12:43:35;5.83;;;3.97;;
7845;SDS011;3968;51.424;6.788;2024-02-14T12:46:01;5.10;;;3.77;;
7845;SDS011;3968;51.424;6.788;2024-02-14T12:48:29;5.27;;;3.10;;
7845;SDS011;3968;51.424;6.788;2024-02-14T12:50:55;4.47;;;3.50;;
7845;SDS011;3968;51.424;6.788;2024-02-14T12:53:21;4.87;;;3.93;;
7845;SDS011;3968;51.424;6.788;2024-02-14T12:55:47;5.07;;;3.73;;
7845;SDS011;3968;51.424;6.788;2024-02-14T12:58:13;3.78;;;2.78;;
7845;SDS011;3968;51.424;6.788;2024-02-14T13:00:39;5.80;;;3.10;;
7845;SDS011;3968;51.424;6.788;2024-02-14T13:03:05;3.97;;;2.90;;
7845;SDS011;3968;51.424;6.788;2024-02-14T13:05:30;3.42;;;2.60;;
7845;SDS011;3968;51.424;6.788;2024-02-14T13:07:56;4.67;;;2.60;;
7845;SDS011;3968;51.424;6.788;2024-02-14T13:10:22;4.70;;;2.70;;
7845;SDS011;3968;51.424;6.788;2024-02-14T13:12:48;2.67;;;2.47;;
7845;SDS011;3968;51.424;6.788;2024-02-14T13:15:14;3.63;;;2.70;;
7845;SDS011;3968;51.424;6.788;2024-02-14T13:17:41;4.03;;;2.67;;
7845;SDS011;3968;51.424;6.788;2024-02-14T13:20:07;3.28;;;2.45;;
7845;SDS011;3968;51.424;6.788;2024-02-14T13:22:33;4.13;;;2.73;;
7845;SDS011;3968;51.424;6.788;2024-02-14T13:24:59;4.87;;;2.77;;
7845;SDS011;3968;51.424;6.788;2024-02-14T13:27:28;5.27;;;2.57;;
7845;SDS011;3968;51.424;6.788;2024-02-14T13:29:53;2.60;;;2.30;;
7845;SDS011;3968;51.424;6.788;2024-02-14T13:32:19;4.60;;;2.50;;
7845;SDS011;3968;51.424;6.788;2024-02-14T13:34:44;6.43;;;2.30;;
7845;SDS011;3968;51.424;6.788;2024-02-14T13:37:10;2.65;;;1.80;;
7845;SDS011;3968;51.424;6.788;2024-02-14T13:39:36;2.93;;;1.70;;
7845;SDS011;3968;51.424;6.788;2024-02-14T13:42:02;2.60;;;1.97;;
7845;SDS011;3968;51.424;6.788;2024-02-14T13:44:27;3.15;;;2.30;;
7845;SDS011;3968;51.424;6.788;2024-02-14T13:46:53;3.10;;;2.03;;
7845;SDS011;3968;51.424;6.788;2024-02-14T13:49:19;2.03;;;1.83;;
7845;SDS011;3968;51.424;6.788;2024-02-14T13:51:51;2.90;;;2.47;;
7845;SDS011;3968;51.424;6.788;2024-02-14T13:54:17;2.33;;;1.90;;
7845;SDS011;3968;51.424;6.788;2024-02-14T13:56:44;3.15;;;2.13;;
7845;SDS011;3968;51.424;6.788;2024-02-14T13:59:10;4.73;;;2.23;;
7845;SDS011;3968;51.424;6.788;2024-02-14T14:01:36;5.00;;;2.90;;
7845;SDS011;3968;51.424;6.788;2024-02-14T14:04:02;5.03;;;2.73;;
7845;SDS011;3968;51.424;6.788;2024-02-14T14:06:29;4.10;;;2.70;;
7845;SDS011;3968;51.424;6.788;2024-02-14T14:08:54;3.00;;;2.40;;
7845;SDS011;3968;51.424;6.788;2024-02-14T14:11:20;5.90;;;3.10;;
7845;SDS011;3968;51.424;6.788;2024-02-14T14:13:45;2.60;;;2.40;;
7845;SDS011;3968;51.424;6.788;2024-02-14T14:16:11;3.17;;;2.20;;
7845;SDS011;3968;51.424;6.788;2024-02-14T14:18:37;3.07;;;2.40;;
7845;SDS011;3968;51.424;6.788;2024-02-14T14:21:03;3.83;;;2.63;;
7845;SDS011;3968;51.424;6.788;2024-02-14T14:23:29;2.50;;;2.10;;
7845;SDS011;3968;51.424;6.788;2024-02-14T14:25:55;2.93;;;1.57;;
7845;SDS011;3968;51.424;6.788;2024-02-14T14:28:21;3.87;;;2.50;;
7845;SDS011;3968;51.424;6.788;2024-02-14T14:30:53;2.97;;;1.97;;
7845;SDS011;3968;51.424;6.788;2024-02-14T14:33:20;4.33;;;2.40;;
7845;SDS011;3968;51.424;6.788;2024-02-14T14:35:46;2.50;;;2.17;;
7845;SDS011;3968;51.424;6.788;2024-02-14T14:38:14;3.33;;;2.00;;
7845;SDS011;3968;51.424;6.788;2024-02-14T14:40:40;5.63;;;4.03;;
7845;SDS011;3968;51.424;6.788;2024-02-14T14:43:05;4.70;;;3.23;;
7845;SDS011;3968;51.424;6.788;2024-02-14T14:45:32;3.10;;;2.80;;
7845;SDS011;3968;51.424;6.788;2024-02-14T14:47:58;3.37;;;2.30;;
7845;SDS011;3968;51.424;6.788;2024-02-14T14:50:23;3.40;;;2.50;;
7845;SDS011;3968;51.424;6.788;2024-02-14T14:52:50;4.28;;;3.00;;
7845;SDS011;3968;51.424;6.788;2024-02-14T14:55:17;4.17;;;3.23;;
7845;SDS011;3968;51.424;6.788;2024-02-14T14:57:43;3.53;;;2.55;;
7845;SDS011;3968;51.424;6.788;2024-02-14T15:00:09;6.07;;;3.70;;
7845;SDS011;3968;51.424;6.788;2024-02-14T15:02:41;5.53;;;4.00;;
7845;SDS011;3968;51.424;6.788;2024-02-14T15:05:08;7.97;;;4.90;;
7845;SDS011;3968;51.424;6.788;2024-02-14T15:07:35;6.70;;;4.93;;
7845;SDS011;3968;51.424;6.788;2024-02-14T15:10:01;7.32;;;4.57;;